Language: 


Des rapports , des résumés tant et plus, au choix de chacun....


Données Historiques de Météogheer
Journalier Rapport pour Janvier 11, 2018 Unitée:  Les deux    Impériale   Métrique
Suivant Jour »
Journalier Hebdomadaire Mensuel Annuel Sur mesure
  Max: Min: Moyenne:
Température: 42.3 °F /  5.7 °C 36.1 °F /  2.3 °C 39.9 °F /  4.4 °C
Point de rosée: 42.8 °F /  6.0 °C 37.4 °F /  3.0 °C 40.1 °F /  4.5 °C
Humidité: 98% 98% 98%
Vent: 6mph /  9.7km/h - 0.3mph /  0.5km/h
Rafales: 7.2mph /  11.6km/h - -
Vent- - West
Pression: 30.2 in /  1022.9 hPa 29.8 in /  1008.0 hPa -
Pluie: 0.01 in /  0.3 mm    
Historical Graphs
 
 
Données tabulaires pour Janvier 11, 2018
Heure Température Point de rosée Pression Vent Vent Rafales Humidité Pluie Taux (Horaire) Conditions
00:04 39 °F /  3.9 °C 39.2 °F /  4.0 °C 29.8in /  1009.0hPa Calm     98% 0in /  0.0mm
00:13 39 °F /  3.9 °C 39.2 °F /  4.0 °C 29.8in /  1009.0hPa Calm     98% 0in /  0.0mm
00:28 38.1 °F /  3.4 °C 37.4 °F /  3.0 °C 29.8in /  1009.0hPa Calm     98% 0in /  0.0mm
00:34 37.6 °F /  3.1 °C 37.4 °F /  3.0 °C 29.8in /  1009.0hPa Calm     98% 0in /  0.0mm
00:42 37 °F /  2.8 °C 37.4 °F /  3.0 °C 29.8in /  1009.0hPa Calm     98% 0in /  0.0mm
00:47 36.7 °F /  2.6 °C 37.4 °F /  3.0 °C 29.8in /  1009.0hPa Calm     98% 0in /  0.0mm
00:57 36.7 °F /  2.6 °C 37.4 °F /  3.0 °C 29.8in /  1009.0hPa Calm     98% 0in /  0.0mm
01:02 36.9 °F /  2.7 °C 37.4 °F /  3.0 °C 29.8in /  1009.0hPa Calm     98% 0in /  0.0mm
01:10 36.9 °F /  2.7 °C 37.4 °F /  3.0 °C 29.8in /  1009.0hPa Calm     98% 0in /  0.0mm
01:16 37.2 °F /  2.9 °C 37.4 °F /  3.0 °C 29.8in /  1009.0hPa Calm   1.6mph /  2.6km/h 98% 0in /  0.0mm
01:24 37.2 °F /  2.9 °C 37.4 °F /  3.0 °C 29.8in /  1009.0hPa Calm   1.6mph /  2.6km/h 98% 0in /  0.0mm
01:31 37.4 °F /  3.0 °C 37.4 °F /  3.0 °C 29.8in /  1009.0hPa Calm     98% 0in /  0.0mm
01:36 37.6 °F /  3.1 °C 37.4 °F /  3.0 °C 29.8in /  1009.0hPa Calm     98% 0in /  0.0mm
01:41 37.9 °F /  3.3 °C 37.4 °F /  3.0 °C 29.8in /  1009.0hPa Calm     98% 0in /  0.0mm
01:46 37.9 °F /  3.3 °C 37.4 °F /  3.0 °C 29.8in /  1009.0hPa Calm     98% 0in /  0.0mm
01:53 37.9 °F /  3.3 °C 37.4 °F /  3.0 °C 29.8in /  1009.0hPa Calm     98% 0in /  0.0mm
02:01 37.6 °F /  3.1 °C 37.4 °F /  3.0 °C 29.8in /  1009.0hPa Calm     98% 0in /  0.0mm
02:06 37.2 °F /  2.9 °C 37.4 °F /  3.0 °C 29.8in /  1009.0hPa Calm     98% 0in /  0.0mm
02:07 37.2 °F /  2.9 °C 37.4 °F /  3.0 °C 29.8in /  1009.0hPa Calm     98% 0in /  0.0mm
02:08 37.2 °F /  2.9 °C 37.4 °F /  3.0 °C 29.8in /  1009.0hPa Calm     98% 0in /  0.0mm
02:09 37.2 °F /  2.9 °C 37.4 °F /  3.0 °C 29.8in /  1009.0hPa Calm     98% 0in /  0.0mm
02:10 37.2 °F /  2.9 °C 37.4 °F /  3.0 °C 29.8in /  1009.0hPa Calm     98% 0in /  0.0mm
02:14 37 °F /  2.8 °C 37.4 °F /  3.0 °C 29.8in /  1008.0hPa Calm     98% 0in /  0.0mm
02:19 36.9 °F /  2.7 °C 37.4 °F /  3.0 °C 29.8in /  1008.0hPa Calm     98% 0in /  0.0mm
02:24 36.7 °F /  2.6 °C 37.4 °F /  3.0 °C 29.8in /  1008.0hPa Calm     98% 0in /  0.0mm
02:32 36.5 °F /  2.5 °C 37.4 °F /  3.0 °C 29.8in /  1009.0hPa Calm     98% 0in /  0.0mm
02:45 36.3 °F /  2.4 °C 37.4 °F /  3.0 °C 29.8in /  1009.0hPa Calm     98% 0in /  0.0mm
02:52 36.3 °F /  2.4 °C 37.4 °F /  3.0 °C 29.8in /  1009.0hPa Calm     98% 0in /  0.0mm
02:59 36.1 °F /  2.3 °C 37.4 °F /  3.0 °C 29.8in /  1009.0hPa Calm     98% 0in /  0.0mm
03:10 36.1 °F /  2.3 °C 37.4 °F /  3.0 °C 29.8in /  1009.0hPa Calm     98% 0in /  0.0mm
03:15 36.1 °F /  2.3 °C 37.4 °F /  3.0 °C 29.8in /  1009.0hPa Calm     98% 0in /  0.0mm
03:25 36.9 °F /  2.7 °C 37.4 °F /  3.0 °C 29.8in /  1009.0hPa NNE 6mph /  9.7km/h 6mph /  9.7km/h 98% 0in /  0.0mm
03:31 37.4 °F /  3.0 °C 37.4 °F /  3.0 °C 29.8in /  1010.0hPa North 4mph /  6.4km/h 6mph /  9.7km/h 98% 0in /  0.0mm
03:36 37.6 °F /  3.1 °C 37.4 °F /  3.0 °C 29.8in /  1010.0hPa NNE 4mph /  6.4km/h 4.9mph /  7.9km/h 98% 0in /  0.0mm
03:47 37.9 °F /  3.3 °C 37.4 °F /  3.0 °C 29.8in /  1010.0hPa North 0.9mph /  1.4km/h 3.8mph /  6.1km/h 98% 0in /  0.0mm
03:57 38.1 °F /  3.4 °C 37.4 °F /  3.0 °C 29.8in /  1010.0hPa Calm   2.7mph /  4.3km/h 98% 0in /  0.0mm
04:04 38.1 °F /  3.4 °C 37.4 °F /  3.0 °C 29.8in /  1010.0hPa Calm   1.3mph /  2.1km/h 98% 0in /  0.0mm
04:12 38.1 °F /  3.4 °C 37.4 °F /  3.0 °C 29.8in /  1010.0hPa Calm     98% 0in /  0.0mm
04:21 38.1 °F /  3.4 °C 37.4 °F /  3.0 °C 29.8in /  1010.0hPa Calm     98% 0in /  0.0mm
04:38 38.1 °F /  3.4 °C 37.4 °F /  3.0 °C 29.8in /  1010.0hPa Calm     98% 0in /  0.0mm
04:46 38.5 °F /  3.6 °C 39.2 °F /  4.0 °C 29.8in /  1010.0hPa Calm     98% 0in /  0.0mm
04:59 39.2 °F /  4.0 °C 39.2 °F /  4.0 °C 29.8in /  1010.0hPa Calm     98% 0in /  0.0mm
05:06 39.7 °F /  4.3 °C 39.2 °F /  4.0 °C 29.8in /  1010.0hPa Calm     98% 0in /  0.0mm
05:11 39.9 °F /  4.4 °C 39.2 °F /  4.0 °C 29.8in /  1010.0hPa Calm     98% 0in /  0.0mm
05:16 39.9 °F /  4.4 °C 39.2 °F /  4.0 °C 29.8in /  1010.0hPa Calm     98% 0in /  0.0mm
05:26 40.3 °F /  4.6 °C 41 °F /  5.0 °C 29.9in /  1011.1hPa Calm   4.3mph /  6.9km/h 98% 0in /  0.0mm
05:31 40.3 °F /  4.6 °C 41 °F /  5.0 °C 29.9in /  1011.1hPa Calm   3.4mph /  5.5km/h 98% 0in /  0.0mm
05:41 40.1 °F /  4.5 °C 41 °F /  5.0 °C 29.9in /  1011.1hPa Calm     98% 0in /  0.0mm
05:46 40.1 °F /  4.5 °C 41 °F /  5.0 °C 29.9in /  1011.1hPa Calm     98% 0in /  0.0mm
06:00 39.9 °F /  4.4 °C 39.2 °F /  4.0 °C 29.9in /  1011.1hPa Calm   0.9mph /  1.4km/h 98% 0in /  0.0mm
06:07 39.9 °F /  4.4 °C 39.2 °F /  4.0 °C 29.9in /  1011.1hPa Calm   0.9mph /  1.4km/h 98% 0in /  0.0mm
06:22 39.7 °F /  4.3 °C 39.2 °F /  4.0 °C 29.8in /  1010.0hPa SSE 1.3mph /  2.1km/h 1.3mph /  2.1km/h 98% 0in /  0.0mm
06:30 39.7 °F /  4.3 °C 39.2 °F /  4.0 °C 29.8in /  1010.0hPa Calm   2.9mph /  4.7km/h 98% 0in /  0.0mm
06:36 39.7 °F /  4.3 °C 39.2 °F /  4.0 °C 29.8in /  1010.0hPa Calm     98% 0in /  0.0mm
06:41 39.6 °F /  4.2 °C 39.2 °F /  4.0 °C 29.9in /  1011.1hPa Calm     98% 0in /  0.0mm
07:02 39.7 °F /  4.3 °C 39.2 °F /  4.0 °C 29.9in /  1011.1hPa Calm     98% 0in /  0.0mm
07:13 39.7 °F /  4.3 °C 39.2 °F /  4.0 °C 29.9in /  1012.1hPa Calm     98% 0in /  0.0mm
07:18 39.7 °F /  4.3 °C 39.2 °F /  4.0 °C 29.9in /  1012.1hPa Calm     98% 0in /  0.0mm
07:27 39.7 °F /  4.3 °C 39.2 °F /  4.0 °C 29.9in /  1012.1hPa Calm     98% 0in /  0.0mm
07:40 39.9 °F /  4.4 °C 39.2 °F /  4.0 °C 29.9in /  1013.1hPa Calm     98% 0in /  0.0mm
07:46 39.9 °F /  4.4 °C 39.2 °F /  4.0 °C 29.9in /  1013.1hPa Calm     98% 0in /  0.0mm
07:51 39.9 °F /  4.4 °C 39.2 °F /  4.0 °C 29.9in /  1013.1hPa Calm     98% 0in /  0.0mm
08:03 39.9 °F /  4.4 °C 39.2 °F /  4.0 °C 29.9in /  1013.1hPa Calm     98% 0in /  0.0mm
08:19 39.9 °F /  4.4 °C 39.2 °F /  4.0 °C 29.9in /  1012.1hPa Calm     98% 0in /  0.0mm
08:29 39.9 °F /  4.4 °C 39.2 °F /  4.0 °C 29.9in /  1013.1hPa Calm   0.9mph /  1.4km/h 98% 0in /  0.0mm
08:36 39.9 °F /  4.4 °C 39.2 °F /  4.0 °C 29.9in /  1013.1hPa Calm     98% 0in /  0.0mm
08:42 40.1 °F /  4.5 °C 41 °F /  5.0 °C 29.9in /  1013.1hPa Calm   2mph /  3.2km/h 98% 0in /  0.0mm
09:00 40.3 °F /  4.6 °C 41 °F /  5.0 °C 29.9in /  1014.1hPa Calm     98% 0in /  0.0mm
09:07 40.3 °F /  4.6 °C 41 °F /  5.0 °C 29.9in /  1014.1hPa Calm   0.9mph /  1.4km/h 98% 0in /  0.0mm
09:14 40.5 °F /  4.7 °C 41 °F /  5.0 °C 29.9in /  1014.1hPa Calm   1.6mph /  2.6km/h 98% 0in /  0.0mm
09:24 40.5 °F /  4.7 °C 41 °F /  5.0 °C 29.9in /  1014.1hPa Calm     98% 0in /  0.0mm
09:29 40.5 °F /  4.7 °C 41 °F /  5.0 °C 29.9in /  1014.1hPa Calm   2mph /  3.2km/h 98% 0in /  0.0mm
09:44 40.8 °F /  4.9 °C 41 °F /  5.0 °C 29.9in /  1014.1hPa Calm     98% 0in /  0.0mm
09:51 41 °F /  5.0 °C 41 °F /  5.0 °C 29.9in /  1014.1hPa Calm     98% 0in /  0.0mm
10:14 41 °F /  5.0 °C 41 °F /  5.0 °C 30in /  1015.1hPa Calm   1.1mph /  1.8km/h 98% 0in /  0.0mm
10:20 41 °F /  5.0 °C 41 °F /  5.0 °C 30in /  1015.1hPa Calm     98% 0in /  0.0mm
10:30 41.2 °F /  5.1 °C 41 °F /  5.0 °C 29.9in /  1014.1hPa Calm   2mph /  3.2km/h 98% 0in /  0.0mm
10:35 41.2 °F /  5.1 °C 41 °F /  5.0 °C 29.9in /  1014.1hPa Calm   2.5mph /  4.0km/h 98% 0in /  0.0mm
10:42 41.2 °F /  5.1 °C 41 °F /  5.0 °C 30in /  1015.1hPa Calm   1.6mph /  2.6km/h 98% 0in /  0.0mm
10:47 41.2 °F /  5.1 °C 41 °F /  5.0 °C 30in /  1015.1hPa Calm   1.6mph /  2.6km/h 98% 0in /  0.0mm
10:54 41.2 °F /  5.1 °C 41 °F /  5.0 °C 30in /  1015.1hPa Calm     98% 0in /  0.0mm
11:04 41.5 °F /  5.3 °C 42.8 °F /  6.0 °C 30in /  1015.1hPa Calm     98% 0in /  0.0mm
11:09 41.5 °F /  5.3 °C 42.8 °F /  6.0 °C 30in /  1015.1hPa Calm   2.5mph /  4.0km/h 98% 0in /  0.0mm
11:20 41.5 °F /  5.3 °C 42.8 °F /  6.0 °C 30in /  1015.1hPa Calm     98% 0in /  0.0mm
11:26 41.5 °F /  5.3 °C 42.8 °F /  6.0 °C 30in /  1016.1hPa Calm   0.9mph /  1.4km/h 98% 0in /  0.0mm
11:36 41.5 °F /  5.3 °C 42.8 °F /  6.0 °C 30in /  1016.1hPa Calm   3.4mph /  5.5km/h 98% 0in /  0.0mm
11:41 41.5 °F /  5.3 °C 42.8 °F /  6.0 °C 30in /  1016.1hPa Calm   3.4mph /  5.5km/h 98% 0in /  0.0mm
11:49 41.7 °F /  5.4 °C 42.8 °F /  6.0 °C 30in /  1016.1hPa Calm     98% 0in /  0.0mm
11:55 41.9 °F /  5.5 °C 42.8 °F /  6.0 °C 30in /  1016.1hPa Calm   1.3mph /  2.1km/h 98% 0in /  0.0mm
12:00 42.1 °F /  5.6 °C 42.8 °F /  6.0 °C 30in /  1016.1hPa Calm   1.3mph /  2.1km/h 98% 0in /  0.0mm
12:06 42.1 °F /  5.6 °C 42.8 °F /  6.0 °C 30in /  1016.1hPa Calm     98% 0in /  0.0mm
12:11 41.9 °F /  5.5 °C 42.8 °F /  6.0 °C 30in /  1016.8hPa Calm     98% 0in /  0.0mm
12:17 41.9 °F /  5.5 °C 42.8 °F /  6.0 °C 30in /  1016.8hPa Calm     98% 0in /  0.0mm
12:28 42.1 °F /  5.6 °C 42.8 °F /  6.0 °C 30in /  1016.8hPa Calm   1.1mph /  1.8km/h 98% 0in /  0.0mm
12:33 42.1 °F /  5.6 °C 42.8 °F /  6.0 °C 30in /  1016.8hPa Calm   3.1mph /  5.0km/h 98% 0in /  0.0mm
12:43 42.1 °F /  5.6 °C 42.8 °F /  6.0 °C 30in /  1016.8hPa Calm   0.9mph /  1.4km/h 98% 0in /  0.0mm
12:56 42.1 °F /  5.6 °C 42.8 °F /  6.0 °C 30in /  1016.8hPa Calm   0.9mph /  1.4km/h 98% 0in /  0.0mm
13:16 42.1 °F /  5.6 °C 42.8 °F /  6.0 °C 30in /  1016.8hPa Calm     98% 0in /  0.0mm
13:21 42.1 °F /  5.6 °C 42.8 °F /  6.0 °C 30in /  1016.8hPa Calm   2.5mph /  4.0km/h 98% 0in /  0.0mm
13:33 42.1 °F /  5.6 °C 42.8 °F /  6.0 °C 30in /  1016.8hPa Calm     98% 0in /  0.0mm
13:38 42.1 °F /  5.6 °C 42.8 °F /  6.0 °C 30in /  1016.8hPa Calm     98% 0in /  0.0mm
13:51 42.3 °F /  5.7 °C 42.8 °F /  6.0 °C 30in /  1016.8hPa West 3.1mph /  5.0km/h 3.1mph /  5.0km/h 98% 0in /  0.0mm
14:06 42.1 °F /  5.6 °C 42.8 °F /  6.0 °C 30in /  1016.1hPa West 1.3mph /  2.1km/h 4mph /  6.4km/h 98% 0in /  0.0mm
14:12 41.7 °F /  5.4 °C 42.8 °F /  6.0 °C 30in /  1016.8hPa Calm   6.5mph /  10.5km/h 98% 0in /  0.0mm
14:24 41.9 °F /  5.5 °C 42.8 °F /  6.0 °C 30in /  1016.8hPa Calm   3.6mph /  5.8km/h 98% 0in /  0.0mm
14:38 42.1 °F /  5.6 °C 42.8 °F /  6.0 °C 30in /  1016.8hPa Calm     98% 0in /  0.0mm
14:48 41.7 °F /  5.4 °C 42.8 °F /  6.0 °C 30in /  1016.8hPa Calm   3.6mph /  5.8km/h 98% 0in /  0.0mm
14:49 41.7 °F /  5.4 °C 42.8 °F /  6.0 °C 30in /  1016.8hPa Calm   3.6mph /  5.8km/h 98% 0in /  0.0mm
15:08 41.7 °F /  5.4 °C 42.8 °F /  6.0 °C 30.1in /  1018.2hPa Calm   2.7mph /  4.3km/h 98% 0in /  0.0mm
15:33 41.7 °F /  5.4 °C 42.8 °F /  6.0 °C 30.1in /  1018.2hPa Calm   2.9mph /  4.7km/h 98% 0in /  0.0mm
15:38 41.7 °F /  5.4 °C 42.8 °F /  6.0 °C 30.1in /  1018.2hPa Calm   0.9mph /  1.4km/h 98% 0in /  0.0mm
15:43 41.5 °F /  5.3 °C 42.8 °F /  6.0 °C 30.1in /  1018.2hPa Calm   0.9mph /  1.4km/h 98% 0in /  0.0mm
15:49 41.5 °F /  5.3 °C 42.8 °F /  6.0 °C 30.1in /  1018.2hPa Calm     98% 0in /  0.0mm
15:56 41.4 °F /  5.2 °C 41 °F /  5.0 °C 30.1in /  1018.2hPa Calm   1.1mph /  1.8km/h 98% 0in /  0.0mm
16:01 41.2 °F /  5.1 °C 41 °F /  5.0 °C 30.1in /  1018.8hPa Calm   1.1mph /  1.8km/h 98% 0in /  0.0mm
16:06 41.2 °F /  5.1 °C 41 °F /  5.0 °C 30.1in /  1018.8hPa Calm   2.2mph /  3.5km/h 98% 0in /  0.0mm
16:12 41.2 °F /  5.1 °C 41 °F /  5.0 °C 30.1in /  1018.8hPa Calm   2.2mph /  3.5km/h 98% 0in /  0.0mm
16:17 41.2 °F /  5.1 °C 41 °F /  5.0 °C 30.1in /  1018.8hPa Calm     98% 0in /  0.0mm
16:26 41.2 °F /  5.1 °C 41 °F /  5.0 °C 30.1in /  1018.8hPa Calm   0.9mph /  1.4km/h 98% 0in /  0.0mm
16:35 41.2 °F /  5.1 °C 41 °F /  5.0 °C 30.1in /  1018.8hPa Calm   0.9mph /  1.4km/h 98% 0in /  0.0mm
16:42 41 °F /  5.0 °C 41 °F /  5.0 °C 30.1in /  1018.8hPa Calm     98% 0in /  0.0mm
16:47 41.2 °F /  5.1 °C 41 °F /  5.0 °C 30.1in /  1018.2hPa Calm     98% 0in /  0.0mm
16:56 41 °F /  5.0 °C 41 °F /  5.0 °C 30.1in /  1018.8hPa Calm   1.1mph /  1.8km/h 98% 0in /  0.0mm
17:03 41 °F /  5.0 °C 41 °F /  5.0 °C 30.1in /  1018.8hPa West 0.9mph /  1.4km/h 2.7mph /  4.3km/h 98% 0in /  0.0mm
17:10 41 °F /  5.0 °C 41 °F /  5.0 °C 30.1in /  1018.8hPa Calm   3.6mph /  5.8km/h 98% 0in /  0.0mm
17:21 41 °F /  5.0 °C 41 °F /  5.0 °C 30.1in /  1018.2hPa Calm   1.6mph /  2.6km/h 98% 0in /  0.0mm
17:27 40.8 °F /  4.9 °C 41 °F /  5.0 °C 30.1in /  1018.8hPa Calm   1.6mph /  2.6km/h 98% 0in /  0.0mm
17:35 40.8 °F /  4.9 °C 41 °F /  5.0 °C 30.1in /  1018.8hPa Calm   2mph /  3.2km/h 98% 0in /  0.0mm
17:41 40.8 °F /  4.9 °C 41 °F /  5.0 °C 30.1in /  1018.8hPa Calm   1.1mph /  1.8km/h 98% 0in /  0.0mm
17:47 41 °F /  5.0 °C 41 °F /  5.0 °C 30.1in /  1018.8hPa Calm     98% 0in /  0.0mm
17:53 41 °F /  5.0 °C 41 °F /  5.0 °C 30.1in /  1018.8hPa Calm     98% 0in /  0.0mm
18:00 41 °F /  5.0 °C 41 °F /  5.0 °C 30.1in /  1019.9hPa Calm     98% 0in /  0.0mm
18:07 41.2 °F /  5.1 °C 41 °F /  5.0 °C 30.1in /  1019.9hPa Calm     98% 0in /  0.0mm
18:15 41.2 °F /  5.1 °C 41 °F /  5.0 °C 30.1in /  1019.9hPa Calm     98% 0in /  0.0mm
18:23 41.2 °F /  5.1 °C 41 °F /  5.0 °C 30.1in /  1019.9hPa Calm     98% 0in /  0.0mm
18:31 41.2 °F /  5.1 °C 41 °F /  5.0 °C 30.1in /  1019.9hPa Calm     98% 0in /  0.0mm
18:41 41 °F /  5.0 °C 41 °F /  5.0 °C 30.1in /  1019.9hPa Calm   2.2mph /  3.5km/h 98% 0in /  0.0mm
18:46 40.8 °F /  4.9 °C 41 °F /  5.0 °C 30.2in /  1020.9hPa Calm   3.1mph /  5.0km/h 98% 0in /  0.0mm
18:53 40.8 °F /  4.9 °C 41 °F /  5.0 °C 30.2in /  1020.9hPa Calm   3.1mph /  5.0km/h 98% 0in /  0.0mm
18:59 40.8 °F /  4.9 °C 41 °F /  5.0 °C 30.2in /  1020.9hPa Calm   3.8mph /  6.1km/h 98% 0in /  0.0mm
19:04 40.8 °F /  4.9 °C 41 °F /  5.0 °C 30.2in /  1020.9hPa Calm   4mph /  6.4km/h 98% 0in /  0.0mm
19:10 40.6 °F /  4.8 °C 41 °F /  5.0 °C 30.2in /  1020.9hPa Calm   4mph /  6.4km/h 98% 0in /  0.0mm
19:11 40.6 °F /  4.8 °C 41 °F /  5.0 °C 30.2in /  1020.9hPa Calm   4mph /  6.4km/h 98% 0in /  0.0mm
19:17 40.6 °F /  4.8 °C 41 °F /  5.0 °C 30.2in /  1020.9hPa North 2mph /  3.2km/h 2.5mph /  4.0km/h 98% 0in /  0.0mm
19:31 40.5 °F /  4.7 °C 41 °F /  5.0 °C 30.2in /  1021.9hPa Calm   2.9mph /  4.7km/h 98% 0in /  0.0mm
19:36 40.5 °F /  4.7 °C 41 °F /  5.0 °C 30.2in /  1021.9hPa Calm   3.6mph /  5.8km/h 98% 0in /  0.0mm
19:41 40.5 °F /  4.7 °C 41 °F /  5.0 °C 30.2in /  1021.9hPa Calm   3.6mph /  5.8km/h 98% 0in /  0.0mm
19:47 40.5 °F /  4.7 °C 41 °F /  5.0 °C 30.1in /  1019.9hPa Calm   2.5mph /  4.0km/h 98% 0in /  0.0mm
20:05 40.5 °F /  4.7 °C 41 °F /  5.0 °C 30.2in /  1020.9hPa Calm   2.7mph /  4.3km/h 98% 0in /  0.0mm
20:10 40.5 °F /  4.7 °C 41 °F /  5.0 °C 30.2in /  1020.9hPa Calm   4mph /  6.4km/h 98% 0in /  0.0mm
20:20 40.5 °F /  4.7 °C 41 °F /  5.0 °C 30.2in /  1020.9hPa Calm   1.3mph /  2.1km/h 98% 0in /  0.0mm
20:27 40.5 °F /  4.7 °C 41 °F /  5.0 °C 30.2in /  1021.9hPa NE 3.4mph /  5.5km/h 4.3mph /  6.9km/h 98% 0in /  0.0mm
20:34 40.3 °F /  4.6 °C 41 °F /  5.0 °C 30.2in /  1021.9hPa North 2.9mph /  4.7km/h 3.8mph /  6.1km/h 98% 0in /  0.0mm
20:42 40.3 °F /  4.6 °C 41 °F /  5.0 °C 30.2in /  1021.9hPa North 1.1mph /  1.8km/h 5.6mph /  9.0km/h 98% 0in /  0.0mm
20:47 40.5 °F /  4.7 °C 41 °F /  5.0 °C 30.2in /  1021.9hPa North 3.1mph /  5.0km/h 5.6mph /  9.0km/h 98% 0in /  0.0mm
20:57 40.5 °F /  4.7 °C 41 °F /  5.0 °C 30.2in /  1021.9hPa Calm   4.9mph /  7.9km/h 98% 0in /  0.0mm
21:02 40.5 °F /  4.7 °C 41 °F /  5.0 °C 30.2in /  1021.9hPa NNW 4.7mph /  7.6km/h 5.6mph /  9.0km/h 98% 0in /  0.0mm
21:08 40.5 °F /  4.7 °C 41 °F /  5.0 °C 30.2in /  1021.9hPa Calm   6.3mph /  10.1km/h 98% 0in /  0.0mm
21:18 40.1 °F /  4.5 °C 41 °F /  5.0 °C 30.2in /  1022.9hPa North 3.6mph /  5.8km/h 7.2mph /  11.6km/h 98% 0in /  0.0mm
21:52 39.7 °F /  4.3 °C 39.2 °F /  4.0 °C 30.2in /  1022.9hPa Calm   4mph /  6.4km/h 98% 0in /  0.0mm
21:57 39.7 °F /  4.3 °C 39.2 °F /  4.0 °C 30.2in /  1022.9hPa Calm   4mph /  6.4km/h 98% 0in /  0.0mm
22:02 39.6 °F /  4.2 °C 39.2 °F /  4.0 °C 30.2in /  1022.9hPa Calm   1.6mph /  2.6km/h 98% 0in /  0.0mm
22:14 39.4 °F /  4.1 °C 39.2 °F /  4.0 °C 30.2in /  1022.9hPa Calm   3.4mph /  5.5km/h 98% 0in /  0.0mm
22:26 39.6 °F /  4.2 °C 39.2 °F /  4.0 °C 30.2in /  1022.9hPa Calm   3.4mph /  5.5km/h 98% 0in /  0.0mm
22:35 39.4 °F /  4.1 °C 39.2 °F /  4.0 °C 30.2in /  1022.9hPa Calm   6.3mph /  10.1km/h 98% 0in /  0.0mm
22:38 39.4 °F /  4.1 °C 39.2 °F /  4.0 °C 30.2in /  1022.9hPa NNW 3.6mph /  5.8km/h 5.8mph /  9.3km/h 98% 0in /  0.0mm
22:48 39.6 °F /  4.2 °C 39.2 °F /  4.0 °C 30.2in /  1022.9hPa North 2.5mph /  4.0km/h 4.9mph /  7.9km/h 98% 0in /  0.0mm
22:57 39.6 °F /  4.2 °C 39.2 °F /  4.0 °C 30.2in /  1022.9hPa Calm   3.4mph /  5.5km/h 98% 0in /  0.0mm
23:07 39.6 °F /  4.2 °C 39.2 °F /  4.0 °C 30.2in /  1022.9hPa Calm   3.6mph /  5.8km/h 98% 0in /  0.0mm
23:09 39.6 °F /  4.2 °C 39.2 °F /  4.0 °C 30.2in /  1022.9hPa Calm   3.6mph /  5.8km/h 98% 0in /  0.0mm
23:14 39.6 °F /  4.2 °C 39.2 °F /  4.0 °C 30.2in /  1021.9hPa Calm   1.1mph /  1.8km/h 98% 0in /  0.0mm
23:22 39.6 °F /  4.2 °C 39.2 °F /  4.0 °C 30.2in /  1021.9hPa Calm   3.6mph /  5.8km/h 98% 0in /  0.0mm
23:28 39.6 °F /  4.2 °C 39.2 °F /  4.0 °C 30.2in /  1022.9hPa NE 4mph /  6.4km/h 4mph /  6.4km/h 98% 0in /  0.0mm
23:33 39.6 °F /  4.2 °C 39.2 °F /  4.0 °C 30.2in /  1022.9hPa Calm   4.9mph /  7.9km/h 98% 0in /  0.0mm
23:39 39.6 °F /  4.2 °C 39.2 °F /  4.0 °C 30.2in /  1022.9hPa Calm   4.9mph /  7.9km/h 98% 0.01in /  0.3mm
23:47 39.6 °F /  4.2 °C 39.2 °F /  4.0 °C 30.2in /  1022.9hPa Calm   5.4mph /  8.7km/h 98% 0.01in /  0.3mm
23:54 39.9 °F /  4.4 °C 39.2 °F /  4.0 °C 30.2in /  1022.9hPa Calm   5.4mph /  8.7km/h 98% 0.01in /  0.3mm
Données Historique de Météo Turbie

Mise a jour : 22/05/2018 21:48:14
Généré par Cumulus 1.9.4 (1099)